createdAt,value
2017-09-20T00:00:53.740Z,6.80
2017-09-20T00:03:22.156Z,6.90
2017-09-20T00:05:49.781Z,6.80
2017-09-20T00:08:17.407Z,6.80
2017-09-20T00:10:46.096Z,6.80
2017-09-20T00:13:13.763Z,6.70
2017-09-20T00:15:41.385Z,6.80
2017-09-20T00:18:09.045Z,6.80
2017-09-20T00:20:36.668Z,6.80
2017-09-20T00:23:05.068Z,6.70
2017-09-20T00:25:32.722Z,6.60
2017-09-20T00:28:00.336Z,6.70
2017-09-20T00:30:27.964Z,6.70
2017-09-20T00:32:56.385Z,6.70
2017-09-20T00:35:24.004Z,6.70
2017-09-20T00:37:51.622Z,6.70
2017-09-20T00:40:19.277Z,6.70
2017-09-20T00:42:46.906Z,6.80
2017-09-20T00:45:15.284Z,6.80
2017-09-20T00:47:43.728Z,7.00
2017-09-20T00:50:12.673Z,6.90
2017-09-20T00:52:40.312Z,7.00
2017-09-20T00:55:08.191Z,7.10
2017-09-20T00:57:37.106Z,7.10
2017-09-20T01:00:05.957Z,7.10
2017-09-20T01:02:33.804Z,7.00
2017-09-20T01:05:01.424Z,7.10
2017-09-20T01:07:29.881Z,7.10
2017-09-20T01:09:58.806Z,7.10
2017-09-20T01:12:27.897Z,7.10
2017-09-20T01:14:56.667Z,7.10
2017-09-20T01:17:26.066Z,7.10
2017-09-20T01:19:54.157Z,7.00
2017-09-20T01:22:34.755Z,7.20
2017-09-20T01:25:04.556Z,7.20
2017-09-20T01:27:34.203Z,7.20
2017-09-20T01:30:02.744Z,7.10
2017-09-20T01:32:30.368Z,7.30
2017-09-20T01:34:58.787Z,7.30
2017-09-20T01:37:27.228Z,7.20
2017-09-20T01:39:55.355Z,7.30
2017-09-20T01:42:23.899Z,7.30
2017-09-20T01:44:52.352Z,7.40
2017-09-20T01:47:21.072Z,7.40
2017-09-20T01:49:49.733Z,7.40
2017-09-20T01:52:19.023Z,7.40
2017-09-20T01:54:46.634Z,7.50
2017-09-20T01:57:14.911Z,7.50
2017-09-20T01:59:43.877Z,7.50
2017-09-20T02:02:11.923Z,7.50
2017-09-20T02:04:41.439Z,7.50
2017-09-20T02:07:10.556Z,7.60
2017-09-20T02:09:38.667Z,7.60
2017-09-20T02:12:07.044Z,7.70
2017-09-20T02:14:35.460Z,7.70
2017-09-20T02:17:03.116Z,7.60
2017-09-20T02:19:30.737Z,7.70
2017-09-20T02:21:58.359Z,7.70
2017-09-20T02:24:26.003Z,7.80
2017-09-20T02:26:53.621Z,7.80
2017-09-20T02:29:21.235Z,7.90
2017-09-20T02:31:48.876Z,7.80
2017-09-20T02:34:16.492Z,7.90
2017-09-20T02:36:44.109Z,7.90
2017-09-20T02:39:12.523Z,8.00
2017-09-20T02:41:40.133Z,7.90
2017-09-20T02:44:08.516Z,8.00
2017-09-20T02:46:36.173Z,7.90
2017-09-20T02:49:03.796Z,7.90
2017-09-20T02:51:32.181Z,7.90
2017-09-20T02:53:59.841Z,7.80
2017-09-20T02:56:27.491Z,7.80
2017-09-20T02:58:55.103Z,7.90
2017-09-20T03:01:22.764Z,7.90
2017-09-20T03:03:50.390Z,8.00
2017-09-20T03:06:18.768Z,7.90
2017-09-20T03:08:46.418Z,7.80
2017-09-20T03:11:14.036Z,7.80
2017-09-20T03:13:42.424Z,7.90
2017-09-20T03:16:10.067Z,7.70
2017-09-20T03:18:37.683Z,7.80
2017-09-20T03:21:05.305Z,7.80
2017-09-20T03:23:32.951Z,7.80
2017-09-20T03:26:00.575Z,7.80
2017-09-20T03:28:28.195Z,7.80
2017-09-20T03:30:55.849Z,7.80
2017-09-20T03:33:23.474Z,7.90
2017-09-20T03:35:51.855Z,7.90
2017-09-20T03:38:19.516Z,7.90
2017-09-20T03:40:47.134Z,7.90
2017-09-20T03:43:15.517Z,7.90
2017-09-20T03:45:43.180Z,7.80
2017-09-20T03:48:10.796Z,7.90
2017-09-20T03:50:38.420Z,7.90
2017-09-20T03:53:06.076Z,7.80
2017-09-20T03:55:34.459Z,7.90
2017-09-20T03:58:02.092Z,7.80
2017-09-20T04:00:30.521Z,7.90
2017-09-20T04:02:58.163Z,7.80
2017-09-20T04:05:26.587Z,7.90
2017-09-20T04:07:54.243Z,7.80
2017-09-20T04:10:21.868Z,7.80
2017-09-20T04:12:49.496Z,7.80
2017-09-20T04:15:17.293Z,7.80
2017-09-20T04:17:44.921Z,7.90
2017-09-20T04:20:13.310Z,7.90
2017-09-20T04:22:40.968Z,7.80
2017-09-20T04:25:08.619Z,7.90
2017-09-20T04:27:36.257Z,7.90
2017-09-20T04:30:03.915Z,7.90
2017-09-20T04:32:31.535Z,7.90
2017-09-20T04:34:59.270Z,7.90
2017-09-20T04:37:27.702Z,7.80
2017-09-20T04:39:55.318Z,7.80
2017-09-20T04:42:22.948Z,7.80
2017-09-20T04:44:50.604Z,7.80
2017-09-20T04:47:18.262Z,7.90
2017-09-20T04:49:45.904Z,7.90
2017-09-20T04:52:13.556Z,7.90
2017-09-20T04:54:41.189Z,8.00
2017-09-20T04:57:08.807Z,8.00
2017-09-20T04:59:37.233Z,8.00
2017-09-20T05:02:04.856Z,7.90
2017-09-20T05:04:32.493Z,7.90
2017-09-20T05:07:00.147Z,7.80
2017-09-20T05:09:27.772Z,7.80
2017-09-20T05:11:55.430Z,7.80
2017-09-20T05:14:23.129Z,7.80
2017-09-20T05:16:50.764Z,7.90
2017-09-20T05:19:18.387Z,7.90
2017-09-20T05:21:46.051Z,8.00
2017-09-20T05:24:13.671Z,8.10
2017-09-20T05:26:41.305Z,8.10
2017-09-20T05:29:08.963Z,8.20
2017-09-20T05:31:39.943Z,8.30
2017-09-20T05:34:07.645Z,8.30
2017-09-20T05:36:35.304Z,8.30
2017-09-20T05:39:02.933Z,8.30
2017-09-20T05:41:30.701Z,8.30
2017-09-20T05:43:58.355Z,8.30
2017-09-20T05:46:25.976Z,8.40
2017-09-20T05:48:53.614Z,8.50
2017-09-20T05:51:21.289Z,8.50
2017-09-20T05:53:49.179Z,8.60
2017-09-20T05:56:18.046Z,8.70
2017-09-20T05:58:45.907Z,8.70
2017-09-20T06:01:13.605Z,8.90
2017-09-20T06:03:41.246Z,9.00
2017-09-20T06:06:08.906Z,9.20
2017-09-20T06:08:36.536Z,9.40
2017-09-20T06:11:04.160Z,9.50
2017-09-20T06:13:31.816Z,9.60
2017-09-20T06:15:59.447Z,9.60
2017-09-20T06:18:28.385Z,9.70
2017-09-20T06:20:56.252Z,9.70
2017-09-20T06:23:23.876Z,9.80
2017-09-20T06:25:51.504Z,9.90
2017-09-20T06:28:19.168Z,10.10
2017-09-20T06:30:46.800Z,10.30
2017-09-20T06:33:14.428Z,10.40
2017-09-20T06:35:42.095Z,10.70
2017-09-20T06:38:09.733Z,10.90
2017-09-20T06:40:37.370Z,11.10
2017-09-20T06:43:05.045Z,11.30
2017-09-20T06:45:32.679Z,11.30
2017-09-20T06:48:00.316Z,11.30
2017-09-20T06:50:27.979Z,11.30
2017-09-20T06:52:55.607Z,11.40
2017-09-20T06:55:23.244Z,11.40
2017-09-20T06:57:50.903Z,11.50
2017-09-20T07:00:18.531Z,11.50
2017-09-20T07:02:46.185Z,11.40
2017-09-20T07:05:13.857Z,11.50
2017-09-20T07:07:41.484Z,11.60
2017-09-20T07:10:09.132Z,11.70
2017-09-20T07:12:36.803Z,12.10
2017-09-20T07:15:04.452Z,12.30
2017-09-20T07:17:32.089Z,12.50
2017-09-20T07:19:59.747Z,13.00
2017-09-20T07:22:27.380Z,13.60
2017-09-20T07:24:55.020Z,14.00
2017-09-20T07:27:22.789Z,14.70
2017-09-20T07:29:50.424Z,15.40
2017-09-20T07:32:18.061Z,15.20
2017-09-20T07:34:45.723Z,15.90
2017-09-20T07:37:13.359Z,16.10
2017-09-20T07:39:40.992Z,16.20
2017-09-20T07:42:08.668Z,15.90
2017-09-20T07:44:36.284Z,15.50
2017-09-20T07:47:03.925Z,15.30
2017-09-20T07:49:31.596Z,15.40
2017-09-20T07:51:59.232Z,15.20
2017-09-20T07:54:26.863Z,14.90
2017-09-20T07:56:54.532Z,14.50
2017-09-20T07:59:22.160Z,14.30
2017-09-20T08:01:49.792Z,14.20
2017-09-20T08:04:17.476Z,14.00
2017-09-20T08:06:45.114Z,13.90
2017-09-20T08:09:12.737Z,13.70
2017-09-20T08:11:40.400Z,13.90
2017-09-20T08:14:08.028Z,14.40
2017-09-20T08:16:35.669Z,15.20
2017-09-20T08:19:03.336Z,15.40
2017-09-20T08:21:30.971Z,15.50
2017-09-20T08:23:58.617Z,15.70
2017-09-20T08:26:26.288Z,16.00
2017-09-20T08:28:53.924Z,15.60
2017-09-20T08:31:21.569Z,15.40
2017-09-20T08:33:49.248Z,15.60
2017-09-20T08:36:16.887Z,16.10
2017-09-20T08:38:44.536Z,16.30
2017-09-20T08:41:12.204Z,16.30
2017-09-20T08:43:39.835Z,16.40
2017-09-20T08:46:07.481Z,16.40
2017-09-20T08:48:35.176Z,16.20
2017-09-20T08:51:02.859Z,15.50
2017-09-20T08:53:30.510Z,15.40
2017-09-20T08:55:58.195Z,15.70
2017-09-20T08:58:26.599Z,16.30
2017-09-20T09:00:54.237Z,16.30
2017-09-20T09:03:21.910Z,16.20
2017-09-20T09:05:49.561Z,15.70
2017-09-20T09:08:17.200Z,15.40
2017-09-20T09:10:44.871Z,15.10
2017-09-20T09:13:12.504Z,14.80
2017-09-20T09:15:40.136Z,14.60
2017-09-20T09:18:07.801Z,14.70
2017-09-20T09:20:35.438Z,14.80
2017-09-20T09:23:03.074Z,14.80
2017-09-20T09:25:30.745Z,14.70
2017-09-20T09:27:58.384Z,14.70
2017-09-20T09:30:26.015Z,14.80
2017-09-20T09:32:53.685Z,14.90
2017-09-20T09:35:21.316Z,14.80
2017-09-20T09:37:48.944Z,14.90
2017-09-20T09:40:16.612Z,15.00
2017-09-20T09:42:44.243Z,15.20
2017-09-20T09:45:11.879Z,15.30
2017-09-20T09:47:39.540Z,15.40
2017-09-20T09:50:07.168Z,15.20
2017-09-20T09:52:34.811Z,15.30
2017-09-20T09:55:02.479Z,15.30
2017-09-20T09:57:30.119Z,15.40
2017-09-20T09:59:57.754Z,15.60
2017-09-20T10:02:25.446Z,15.70
2017-09-20T10:04:53.085Z,15.90
2017-09-20T10:07:20.725Z,16.00
2017-09-20T10:09:48.395Z,16.30
2017-09-20T10:12:16.041Z,16.20
2017-09-20T10:14:43.689Z,16.10
2017-09-20T10:17:11.356Z,16.00
2017-09-20T10:19:39.755Z,16.40
2017-09-20T10:22:07.392Z,16.30
2017-09-20T10:24:35.059Z,16.60
2017-09-20T10:27:02.660Z,17.00
2017-09-20T10:29:31.064Z,16.70
2017-09-20T10:31:58.745Z,16.60
2017-09-20T10:34:26.372Z,16.60
2017-09-20T10:36:54.008Z,16.30
2017-09-20T10:39:21.670Z,16.00
2017-09-20T10:41:49.299Z,15.80
2017-09-20T10:44:16.936Z,15.70
2017-09-20T10:46:44.599Z,15.60
2017-09-20T10:49:12.245Z,15.50
2017-09-20T10:51:39.888Z,15.70
2017-09-20T10:54:07.560Z,16.20
2017-09-20T10:56:35.191Z,16.70
2017-09-20T10:59:02.825Z,17.00
2017-09-20T11:01:30.502Z,16.90
2017-09-20T11:03:58.128Z,16.80
2017-09-20T11:06:25.762Z,16.80
2017-09-20T11:08:53.424Z,16.70
2017-09-20T11:11:21.081Z,16.70
2017-09-20T11:13:48.718Z,16.80
2017-09-20T11:16:16.380Z,16.90
2017-09-20T11:18:44.004Z,16.90
2017-09-20T11:21:11.642Z,16.90
2017-09-20T11:23:39.313Z,16.70
2017-09-20T11:26:06.943Z,16.60
2017-09-20T11:28:34.577Z,16.50
2017-09-20T11:31:02.233Z,16.40
2017-09-20T11:33:29.860Z,16.30
2017-09-20T11:35:57.512Z,16.10
2017-09-20T11:38:25.160Z,16.30
2017-09-20T11:40:52.792Z,16.60
2017-09-20T11:43:20.414Z,16.60
2017-09-20T11:45:48.839Z,16.60
2017-09-20T11:48:16.460Z,16.60
2017-09-20T11:50:44.085Z,16.70
2017-09-20T11:53:12.518Z,16.70
2017-09-20T11:55:40.156Z,16.60
2017-09-20T11:58:07.789Z,16.90
2017-09-20T12:00:35.451Z,17.10
2017-09-20T12:03:03.085Z,17.10
2017-09-20T12:05:30.723Z,17.20
2017-09-20T12:07:58.379Z,17.20
2017-09-20T12:10:26.006Z,17.10
2017-09-20T12:12:53.623Z,17.10
2017-09-20T12:15:22.044Z,16.70
2017-09-20T12:17:49.668Z,16.60
2017-09-20T12:20:17.359Z,16.60
2017-09-20T12:22:45.019Z,16.40
2017-09-20T12:25:13.407Z,16.40
2017-09-20T12:27:41.027Z,16.40
2017-09-20T12:30:08.677Z,16.40
2017-09-20T12:32:37.068Z,16.40
2017-09-20T12:35:04.699Z,16.30
2017-09-20T12:37:32.346Z,16.30
2017-09-20T12:39:59.971Z,16.30
2017-09-20T12:42:28.372Z,16.40
2017-09-20T12:44:56.045Z,16.40
2017-09-20T12:47:23.671Z,16.60
2017-09-20T12:49:51.304Z,16.60
2017-09-20T12:52:18.959Z,16.60
2017-09-20T12:54:46.595Z,16.60
2017-09-20T12:57:14.229Z,16.80
2017-09-20T12:59:42.653Z,17.20
2017-09-20T13:02:10.309Z,17.20
2017-09-20T13:04:37.928Z,17.20
2017-09-20T13:07:05.590Z,17.10
2017-09-20T13:09:33.216Z,17.50
2017-09-20T13:12:00.819Z,17.70
2017-09-20T13:14:28.451Z,18.20
2017-09-20T13:16:56.057Z,18.60
2017-09-20T13:19:23.657Z,19.40
2017-09-20T13:21:51.291Z,20.10
2017-09-20T13:24:18.884Z,20.80
2017-09-20T13:26:46.481Z,21.10
2017-09-20T13:29:14.116Z,21.00
2017-09-20T13:31:41.713Z,20.60
2017-09-20T13:34:10.076Z,19.60
2017-09-20T13:36:37.704Z,19.60
2017-09-20T13:39:05.307Z,19.10
2017-09-20T13:41:32.907Z,18.50
2017-09-20T13:44:01.315Z,17.10
2017-09-20T13:46:28.955Z,17.10
2017-09-20T13:48:56.585Z,16.80
2017-09-20T13:51:24.250Z,16.50
2017-09-20T13:53:51.852Z,17.20
2017-09-20T13:56:20.212Z,19.00
2017-09-20T13:58:48.623Z,19.70
2017-09-20T14:01:17.935Z,19.70
2017-09-20T14:03:45.540Z,20.50
2017-09-20T14:06:13.175Z,21.00
2017-09-20T14:08:40.774Z,21.10
2017-09-20T14:11:08.388Z,21.00
2017-09-20T14:13:36.023Z,21.20
2017-09-20T14:16:08.240Z,20.70
2017-09-20T14:18:36.052Z,20.70
2017-09-20T14:21:04.008Z,19.70
2017-09-20T14:23:31.613Z,19.50
2017-09-20T14:25:59.243Z,19.10
2017-09-20T14:28:28.355Z,18.50
2017-09-20T14:30:56.371Z,18.20
2017-09-20T14:33:24.796Z,17.30
2017-09-20T14:35:52.446Z,17.20
2017-09-20T14:38:20.846Z,17.00
2017-09-20T14:40:49.396Z,16.70
2017-09-20T14:43:17.027Z,16.60
2017-09-20T14:45:44.664Z,16.60
2017-09-20T14:48:12.328Z,16.40
2017-09-20T14:50:39.961Z,16.40
2017-09-20T14:53:07.587Z,16.50
2017-09-20T14:55:35.236Z,16.40
2017-09-20T14:58:03.623Z,16.50
2017-09-20T15:00:32.028Z,16.40
2017-09-20T15:02:59.687Z,16.20
2017-09-20T15:05:27.319Z,16.10
2017-09-20T15:07:54.976Z,15.80
2017-09-20T15:10:25.310Z,15.80
2017-09-20T15:12:52.937Z,15.70
2017-09-20T15:15:20.580Z,15.60
2017-09-20T15:17:48.243Z,15.60
2017-09-20T15:20:15.864Z,15.60
2017-09-20T15:22:43.487Z,15.30
2017-09-20T15:25:11.912Z,15.10
2017-09-20T15:27:39.540Z,15.00
2017-09-20T15:30:07.190Z,14.90
2017-09-20T15:32:34.853Z,14.90
2017-09-20T15:35:02.476Z,14.70
2017-09-20T15:37:30.108Z,14.60
2017-09-20T15:39:57.772Z,14.60
2017-09-20T15:42:25.387Z,14.50
2017-09-20T15:44:53.772Z,14.50
2017-09-20T15:47:21.427Z,14.50
2017-09-20T15:49:49.046Z,14.50
2017-09-20T15:52:17.443Z,14.50
2017-09-20T15:54:45.101Z,14.40
2017-09-20T15:57:12.727Z,14.40
2017-09-20T15:59:40.364Z,14.30
2017-09-20T16:02:08.014Z,14.30
2017-09-20T16:04:35.648Z,14.30
2017-09-20T16:07:04.051Z,14.20
2017-09-20T16:09:31.714Z,14.10
2017-09-20T16:11:59.338Z,14.10
2017-09-20T16:14:26.978Z,14.00
2017-09-20T16:16:54.633Z,14.10
2017-09-20T16:19:22.289Z,14.00
2017-09-20T16:21:49.946Z,13.90
2017-09-20T16:24:17.623Z,13.80
2017-09-20T16:26:46.012Z,13.80
2017-09-20T16:29:13.673Z,13.70
2017-09-20T16:31:41.343Z,13.70
2017-09-20T16:34:08.980Z,13.70
2017-09-20T16:36:36.644Z,13.60
2017-09-20T16:39:04.311Z,13.50
2017-09-20T16:41:31.948Z,13.50
2017-09-20T16:43:59.588Z,13.50
2017-09-20T16:46:27.274Z,13.40
2017-09-20T16:48:55.693Z,13.40
2017-09-20T16:51:23.352Z,13.30
2017-09-20T16:53:51.005Z,13.40
2017-09-20T16:56:18.634Z,13.30
2017-09-20T16:58:46.260Z,13.20
2017-09-20T17:01:13.912Z,13.20
2017-09-20T17:03:41.547Z,13.20
2017-09-20T17:06:09.166Z,13.10
2017-09-20T17:08:37.591Z,13.00
2017-09-20T17:11:05.286Z,13.00
2017-09-20T17:13:32.913Z,13.00
2017-09-20T17:16:01.341Z,12.90
2017-09-20T17:18:28.960Z,12.80
2017-09-20T17:20:56.587Z,12.90
2017-09-20T17:23:24.259Z,12.90
2017-09-20T17:25:51.888Z,12.80
2017-09-20T17:28:19.516Z,12.70
2017-09-20T17:30:47.945Z,12.60
2017-09-20T17:33:15.569Z,12.50
2017-09-20T17:35:43.187Z,12.50
2017-09-20T17:38:12.627Z,12.50
2017-09-20T17:40:40.279Z,12.50
2017-09-20T17:43:07.940Z,12.40
2017-09-20T17:45:36.563Z,12.30
2017-09-20T17:48:04.179Z,12.20
2017-09-20T17:50:31.830Z,12.20
2017-09-20T17:52:59.500Z,12.20
2017-09-20T17:55:27.134Z,12.10
2017-09-20T17:57:54.767Z,11.90
2017-09-20T18:00:23.621Z,11.90
2017-09-20T18:02:52.033Z,11.70
2017-09-20T18:05:19.672Z,11.70
2017-09-20T18:07:47.335Z,11.60
2017-09-20T18:10:15.088Z,11.60
2017-09-20T18:12:42.744Z,11.50
2017-09-20T18:15:10.403Z,11.40
2017-09-20T18:17:38.129Z,11.40
2017-09-20T18:20:05.844Z,11.30
2017-09-20T18:22:33.511Z,11.30
2017-09-20T18:25:01.132Z,11.30
2017-09-20T18:27:28.757Z,11.20
2017-09-20T18:29:56.429Z,11.10
2017-09-20T18:32:24.096Z,11.20
2017-09-20T18:34:51.723Z,11.10
2017-09-20T18:37:19.377Z,11.00
2017-09-20T18:39:47.013Z,10.90
2017-09-20T18:42:14.636Z,10.90
2017-09-20T18:44:43.067Z,10.70
2017-09-20T18:47:10.693Z,10.70
2017-09-20T18:49:38.351Z,10.70
2017-09-20T18:52:06.017Z,10.60
2017-09-20T18:54:33.642Z,10.50
2017-09-20T18:57:01.268Z,10.40
2017-09-20T18:59:28.932Z,10.50
2017-09-20T19:01:56.564Z,10.50
2017-09-20T19:04:24.187Z,10.30
2017-09-20T19:06:52.617Z,10.20
2017-09-20T19:09:20.246Z,10.20
2017-09-20T19:11:47.921Z,10.20
2017-09-20T19:14:15.670Z,10.10
2017-09-20T19:16:43.292Z,10.00
2017-09-20T19:19:11.037Z,9.90
2017-09-20T19:21:38.687Z,9.90
2017-09-20T19:24:06.357Z,9.90
2017-09-20T19:26:33.976Z,9.90
2017-09-20T19:29:01.716Z,9.80
2017-09-20T19:31:30.243Z,9.70
2017-09-20T19:33:58.648Z,9.60
2017-09-20T19:36:26.311Z,9.60
2017-09-20T19:38:53.944Z,9.50
2017-09-20T19:41:21.560Z,9.50
2017-09-20T19:43:57.171Z,9.50
2017-09-20T19:46:34.273Z,9.50
2017-09-20T19:49:07.720Z,9.40
2017-09-20T19:51:41.611Z,9.50
2017-09-20T19:54:15.626Z,9.50
2017-09-20T19:56:43.696Z,9.50
2017-09-20T19:59:11.318Z,9.50
2017-09-20T20:01:39.739Z,9.50
2017-09-20T20:04:07.424Z,9.50
2017-09-20T20:06:35.816Z,9.50
2017-09-20T20:09:03.489Z,9.40
2017-09-20T20:11:31.118Z,9.40
2017-09-20T20:13:58.736Z,9.40
2017-09-20T20:16:27.248Z,9.30
2017-09-20T20:18:54.863Z,9.30
2017-09-20T20:21:22.487Z,9.30
2017-09-20T20:23:50.901Z,9.20
2017-09-20T20:26:18.519Z,9.20
2017-09-20T20:28:46.140Z,9.20
2017-09-20T20:31:14.569Z,9.20
2017-09-20T20:33:42.187Z,9.10
2017-09-20T20:36:09.845Z,9.20
2017-09-20T20:38:37.500Z,9.10
2017-09-20T20:41:05.119Z,9.10
2017-09-20T20:43:32.735Z,9.10
2017-09-20T20:46:01.160Z,9.00
2017-09-20T20:48:28.785Z,8.90
2017-09-20T20:50:56.412Z,9.00
2017-09-20T20:53:24.063Z,9.00
2017-09-20T20:55:51.687Z,8.90
2017-09-20T20:58:20.067Z,8.80
2017-09-20T21:00:47.725Z,8.70
2017-09-20T21:03:15.348Z,8.70
2017-09-20T21:05:43.747Z,8.60
2017-09-20T21:08:11.404Z,8.60
2017-09-20T21:10:39.068Z,8.60
2017-09-20T21:13:06.717Z,8.60
2017-09-20T21:15:34.379Z,8.60
2017-09-20T21:18:02.035Z,8.50
2017-09-20T21:20:29.660Z,8.50
2017-09-20T21:22:57.310Z,8.40
2017-09-20T21:25:24.939Z,8.40
2017-09-20T21:27:52.557Z,8.40
2017-09-20T21:30:20.210Z,8.40
2017-09-20T21:32:47.823Z,8.30
2017-09-20T21:35:16.205Z,8.30
2017-09-20T21:37:43.851Z,8.30
2017-09-20T21:40:11.560Z,8.30
2017-09-20T21:42:39.177Z,8.30
2017-09-20T21:45:06.837Z,8.30
2017-09-20T21:47:34.461Z,8.30
2017-09-20T21:50:02.093Z,8.30
2017-09-20T21:52:29.751Z,8.40
2017-09-20T21:54:57.367Z,8.40
2017-09-20T21:57:25.773Z,8.40
2017-09-20T21:59:53.427Z,8.40
2017-09-20T22:02:21.057Z,8.40
2017-09-20T22:04:48.679Z,8.50
2017-09-20T22:07:16.333Z,8.50
2017-09-20T22:09:43.963Z,8.60
2017-09-20T22:12:12.342Z,8.60
2017-09-20T22:14:40.000Z,8.50
2017-09-20T22:17:20.567Z,8.60
2017-09-20T22:20:00.035Z,8.50
2017-09-20T22:22:40.272Z,8.40
2017-09-20T22:25:20.593Z,8.50
2017-09-20T22:27:48.212Z,8.40
2017-09-20T22:30:15.831Z,8.50
2017-09-20T22:32:43.476Z,8.50
2017-09-20T22:35:11.102Z,8.50
2017-09-20T22:37:39.496Z,8.50
2017-09-20T22:40:07.154Z,8.40
2017-09-20T22:42:34.763Z,8.40
2017-09-20T22:45:03.156Z,8.50
2017-09-20T22:47:30.808Z,8.40
2017-09-20T22:49:58.433Z,8.50
2017-09-20T22:52:26.052Z,8.50
2017-09-20T22:54:53.707Z,8.60
2017-09-20T22:57:22.112Z,8.50
2017-09-20T22:59:49.743Z,8.50
2017-09-20T23:02:17.412Z,8.50
2017-09-20T23:04:45.029Z,8.50
2017-09-20T23:07:12.659Z,8.40
2017-09-20T23:09:41.084Z,8.30
2017-09-20T23:12:08.708Z,8.30
2017-09-20T23:14:36.341Z,8.40
2017-09-20T23:17:03.999Z,8.30
2017-09-20T23:19:31.615Z,8.30
2017-09-20T23:22:00.010Z,8.30
2017-09-20T23:24:27.663Z,8.30
2017-09-20T23:26:55.286Z,8.30
2017-09-20T23:29:22.911Z,8.30
2017-09-20T23:31:51.325Z,8.30
2017-09-20T23:34:18.940Z,8.20
2017-09-20T23:36:46.560Z,8.30
2017-09-20T23:39:14.976Z,8.30
2017-09-20T23:41:42.591Z,8.20
2017-09-20T23:44:10.212Z,8.30
2017-09-20T23:46:37.862Z,8.20
2017-09-20T23:49:06.249Z,8.30
2017-09-20T23:51:33.871Z,8.20
2017-09-20T23:54:01.519Z,8.30
2017-09-20T23:56:29.136Z,8.30
2017-09-20T23:58:56.840Z,8.30
